South Strafford, Vermont
Current Conditions -  °F | °C
As of 4:53 PM on Thursday 27 Nov 2014 (Local Time) from KLEB Reporting Station
Overcast Overcast  
Wind Chill: 23°   Ceiling: 2400
Heat Index: 29°   Visibility: 10mi
Dew Point: 22°   Wind: 6mph
Humidity: 75%   Direction: 20°NNE
Pressure: 29.98"   Gusts: NA
Location:  43.84°N, 72.37°W
Report Text: KLEB 272153Z 02005KT 10SM OVC024 M02/M06 A2998 RMK AO2 SLP162 T10171056
Loading
Personal Weather Stations






























Interactive Weather Map New forecast layout! Learn more

10-Day Weather Forecast

Advertisements
Track Severe Weather on mobile